createdAt,value
2023-05-15T00:02:23.289Z,78.08
2023-05-15T00:04:50.673Z,77.75
2023-05-15T00:07:17.722Z,78.19
2023-05-15T00:09:44.754Z,78.76
2023-05-15T00:12:11.689Z,78.94
2023-05-15T00:14:38.562Z,78.95
2023-05-15T00:17:06.497Z,79.07
2023-05-15T00:19:33.536Z,79.86
2023-05-15T00:22:00.506Z,78.83
2023-05-15T00:24:27.459Z,79.08
2023-05-15T00:26:54.389Z,79.70
2023-05-15T00:29:21.393Z,81.40
2023-05-15T00:31:48.359Z,79.59
2023-05-15T00:34:15.466Z,81.04
2023-05-15T00:36:42.408Z,82.43
2023-05-15T00:39:09.710Z,81.63
2023-05-15T00:41:37.691Z,80.99
2023-05-15T00:44:06.854Z,80.83
2023-05-15T00:46:36.124Z,81.22
2023-05-15T00:49:05.770Z,80.74
2023-05-15T00:51:33.016Z,82.01
2023-05-15T00:54:00.216Z,81.71
2023-05-15T00:56:30.749Z,81.80
2023-05-15T00:59:00.163Z,81.49
2023-05-15T01:01:27.221Z,81.26
2023-05-15T01:03:54.311Z,81.62
2023-05-15T01:06:21.323Z,80.87
2023-05-15T01:08:49.879Z,79.47
2023-05-15T01:11:18.074Z,78.95
2023-05-15T01:13:46.130Z,78.87
2023-05-15T01:16:13.676Z,78.87
2023-05-15T01:18:40.834Z,78.34
2023-05-15T01:21:10.883Z,78.41
2023-05-15T01:23:56.635Z,78.05
2023-05-15T01:26:48.669Z,77.79
2023-05-15T01:29:27.579Z,79.26
2023-05-15T01:31:58.870Z,79.69
2023-05-15T01:34:34.591Z,79.87
2023-05-15T01:37:04.374Z,79.70
2023-05-15T01:39:34.122Z,79.67
2023-05-15T01:42:11.036Z,79.86
2023-05-15T01:44:41.584Z,80.37
2023-05-15T01:47:15.130Z,80.58
2023-05-15T01:49:45.348Z,80.97
2023-05-15T01:52:23.344Z,81.86
2023-05-15T01:54:50.514Z,80.13
2023-05-15T01:57:19.158Z,80.11
2023-05-15T01:59:46.610Z,79.83
2023-05-15T02:02:14.283Z,81.27
2023-05-15T02:04:42.716Z,80.01
2023-05-15T02:07:10.136Z,79.97
2023-05-15T02:09:37.527Z,80.03
2023-05-15T02:12:06.240Z,80.07
2023-05-15T02:14:33.621Z,80.42
2023-05-15T02:17:00.805Z,80.11
2023-05-15T02:19:27.996Z,79.82
2023-05-15T02:21:54.934Z,79.70
2023-05-15T02:24:21.916Z,79.77
2023-05-15T02:27:12.535Z,78.91
2023-05-15T02:30:07.496Z,77.78
2023-05-15T02:32:56.384Z,78.17
2023-05-15T02:35:27.483Z,77.35
2023-05-15T02:37:58.966Z,76.51
2023-05-15T02:40:27.815Z,76.94
2023-05-15T02:42:57.070Z,77.16
2023-05-15T02:45:24.934Z,76.94
2023-05-15T02:47:52.958Z,76.58
2023-05-15T02:50:20.873Z,77.03
2023-05-15T02:52:47.889Z,76.27
2023-05-15T02:55:14.971Z,76.60
2023-05-15T02:57:42.075Z,76.02
2023-05-15T03:00:13.649Z,77.40
2023-05-15T03:02:40.706Z,77.24
2023-05-15T03:05:08.752Z,77.24
2023-05-15T03:07:35.775Z,76.87
2023-05-15T03:10:02.778Z,77.73
2023-05-15T03:12:29.826Z,77.62
2023-05-15T03:14:56.981Z,77.77
2023-05-15T03:17:24.039Z,77.65
2023-05-15T03:19:51.170Z,77.10
2023-05-15T03:22:18.212Z,76.89
2023-05-15T03:24:45.674Z,76.18
2023-05-15T03:27:12.742Z,76.78
2023-05-15T03:29:39.748Z,76.76
2023-05-15T03:32:06.817Z,78.03
2023-05-15T03:34:33.948Z,76.79
2023-05-15T03:37:01.304Z,76.42
2023-05-15T03:39:28.335Z,76.32
2023-05-15T03:41:55.314Z,77.36
2023-05-15T03:44:22.645Z,77.81
2023-05-15T03:46:49.771Z,77.83
2023-05-15T03:49:18.025Z,77.66
2023-05-15T03:51:45.168Z,78.01
2023-05-15T03:54:14.058Z,78.04
2023-05-15T03:56:41.033Z,78.30
2023-05-15T03:59:08.833Z,78.66
2023-05-15T04:01:44.071Z,79.45
2023-05-15T04:04:18.190Z,79.46
2023-05-15T04:06:45.213Z,79.80
2023-05-15T04:09:12.203Z,79.70
2023-05-15T04:11:39.188Z,79.26
2023-05-15T04:14:06.120Z,79.91
2023-05-15T04:16:33.360Z,80.20
2023-05-15T04:19:00.376Z,80.76
2023-05-15T04:21:27.497Z,80.95
2023-05-15T04:23:54.471Z,81.45
2023-05-15T04:26:21.418Z,81.41
2023-05-15T04:29:00.057Z,81.52
2023-05-15T04:31:31.844Z,80.47
2023-05-15T04:33:59.277Z,80.64
2023-05-15T04:36:26.275Z,81.16
2023-05-15T04:38:53.436Z,81.49
2023-05-15T04:41:21.025Z,81.40
2023-05-15T04:43:47.988Z,81.30
2023-05-15T04:46:14.980Z,80.83
2023-05-15T04:48:42.138Z,80.51
2023-05-15T04:51:09.091Z,80.42
2023-05-15T04:53:36.204Z,79.99
2023-05-15T04:56:03.247Z,80.08
2023-05-15T04:58:30.132Z,79.93
2023-05-15T05:00:57.275Z,79.98
2023-05-15T05:03:24.443Z,80.12
2023-05-15T05:05:51.409Z,78.47
2023-05-15T05:08:18.468Z,78.50
2023-05-15T05:10:45.565Z,77.12
2023-05-15T05:13:12.576Z,75.66
2023-05-15T05:15:39.495Z,75.51
2023-05-15T05:18:06.610Z,75.96
2023-05-15T05:20:33.796Z,73.36
2023-05-15T05:23:00.803Z,73.37
2023-05-15T05:25:27.795Z,79.19
2023-05-15T05:27:54.897Z,80.04
2023-05-15T05:30:22.601Z,78.11
2023-05-15T05:32:49.665Z,76.93
2023-05-15T05:35:16.778Z,76.70
2023-05-15T05:37:43.837Z,76.21
2023-05-15T05:40:11.297Z,71.07
2023-05-15T05:42:38.451Z,73.16
2023-05-15T05:45:06.958Z,70.80
2023-05-15T05:47:34.885Z,78.20
2023-05-15T05:50:01.929Z,75.52
2023-05-15T05:52:29.577Z,75.75
2023-05-15T05:54:56.610Z,76.21
2023-05-15T05:57:23.513Z,77.09
2023-05-15T05:59:50.693Z,77.58
2023-05-15T06:02:17.982Z,77.66
2023-05-15T06:04:46.106Z,77.56
2023-05-15T06:07:13.215Z,76.85
2023-05-15T06:09:40.343Z,75.91
2023-05-15T06:12:09.233Z,75.03
2023-05-15T06:14:36.287Z,75.93
2023-05-15T06:17:03.719Z,75.13
2023-05-15T06:19:30.723Z,74.66
2023-05-15T06:21:58.021Z,71.47
2023-05-15T06:24:25.029Z,71.06
2023-05-15T06:26:52.531Z,75.60
2023-05-15T06:29:19.539Z,76.96
2023-05-15T06:31:47.011Z,78.31
2023-05-15T06:34:14.397Z,79.84
2023-05-15T06:36:41.616Z,79.20
2023-05-15T06:39:10.849Z,79.21
2023-05-15T06:41:38.746Z,79.03
2023-05-15T06:44:11.786Z,79.66
2023-05-15T06:46:38.956Z,78.14
2023-05-15T06:49:06.235Z,75.95
2023-05-15T06:51:33.225Z,73.63
2023-05-15T06:54:00.279Z,74.63
2023-05-15T06:56:27.305Z,73.28
2023-05-15T06:58:54.514Z,73.93
2023-05-15T07:01:21.583Z,71.83
2023-05-15T07:03:48.628Z,71.77
2023-05-15T07:06:15.858Z,73.11
2023-05-15T07:08:43.062Z,73.36
2023-05-15T07:11:10.021Z,74.33
2023-05-15T07:13:36.971Z,74.99
2023-05-15T07:16:04.229Z,75.07
2023-05-15T07:18:31.270Z,73.92
2023-05-15T07:20:58.330Z,73.32
2023-05-15T07:23:25.359Z,71.55
2023-05-15T07:25:55.742Z,70.73
2023-05-15T07:28:23.025Z,71.19
2023-05-15T07:30:50.109Z,72.20
2023-05-15T07:33:17.086Z,71.12
2023-05-15T07:35:44.188Z,70.67
2023-05-15T07:38:12.054Z,70.78
2023-05-15T07:40:39.048Z,71.48
2023-05-15T07:43:06.057Z,73.60
2023-05-15T07:45:33.119Z,72.88
2023-05-15T07:48:13.071Z,71.33
2023-05-15T07:50:39.992Z,63.21
2023-05-15T07:53:06.971Z,58.69
2023-05-15T07:55:33.892Z,56.75
2023-05-15T07:58:00.856Z,55.60
2023-05-15T08:00:27.851Z,56.53
2023-05-15T08:02:54.982Z,55.21
2023-05-15T08:05:22.014Z,55.83
2023-05-15T08:07:49.040Z,54.37
2023-05-15T08:10:16.019Z,54.00
2023-05-15T08:12:46.692Z,52.73
2023-05-15T08:15:14.060Z,55.19
2023-05-15T08:17:41.631Z,54.22
2023-05-15T08:20:09.795Z,53.50
2023-05-15T08:22:36.900Z,55.95
2023-05-15T08:25:05.862Z,57.75
2023-05-15T08:27:33.151Z,59.08
2023-05-15T08:30:00.395Z,56.52
2023-05-15T08:32:27.892Z,53.70
2023-05-15T08:34:55.329Z,65.32
2023-05-15T08:37:22.431Z,66.24
2023-05-15T08:39:49.407Z,65.80
2023-05-15T08:42:25.351Z,57.58
2023-05-15T08:44:52.990Z,53.20
2023-05-15T08:47:20.880Z,50.98
2023-05-15T08:50:15.542Z,54.94
2023-05-15T08:52:44.389Z,58.72
2023-05-15T08:55:11.926Z,58.91
2023-05-15T08:57:39.308Z,51.70
2023-05-15T09:00:09.612Z,51.99
2023-05-15T09:02:37.700Z,59.51
2023-05-15T09:05:06.477Z,62.86
2023-05-15T09:07:34.158Z,61.82
2023-05-15T09:10:02.778Z,60.45
2023-05-15T09:12:33.840Z,48.58
2023-05-15T09:15:11.207Z,50.26
2023-05-15T09:17:39.742Z,62.00
2023-05-15T09:20:08.199Z,61.42
2023-05-15T09:22:36.661Z,54.07
2023-05-15T09:25:04.635Z,60.84
2023-05-15T09:27:42.978Z,53.66
2023-05-15T09:30:10.239Z,52.32
2023-05-15T09:32:38.807Z,47.54
2023-05-15T09:35:31.840Z,47.93
2023-05-15T09:38:00.588Z,51.21
2023-05-15T09:40:31.950Z,57.26
2023-05-15T09:42:59.566Z,58.09
2023-05-15T09:45:30.062Z,57.63
2023-05-15T09:48:00.360Z,51.00
2023-05-15T09:50:38.458Z,59.69
2023-05-15T09:53:06.355Z,57.75
2023-05-15T09:55:34.817Z,60.39
2023-05-15T09:58:16.500Z,59.86
2023-05-15T10:00:47.895Z,59.00
2023-05-15T10:03:20.150Z,57.16
2023-05-15T10:05:47.404Z,55.84
2023-05-15T10:08:15.994Z,56.17
2023-05-15T10:10:43.878Z,55.43
2023-05-15T10:13:11.560Z,51.81
2023-05-15T10:15:40.141Z,43.42
2023-05-15T10:18:08.736Z,46.29
2023-05-15T10:20:36.542Z,45.52
2023-05-15T10:23:06.717Z,50.60
2023-05-15T10:25:49.666Z,53.35
2023-05-15T10:28:19.014Z,52.52
2023-05-15T10:30:47.200Z,52.23
2023-05-15T10:33:15.634Z,49.39
2023-05-15T10:35:43.511Z,50.08
2023-05-15T10:38:11.793Z,42.12
2023-05-15T10:40:41.081Z,44.39
2023-05-15T10:43:11.683Z,40.88
2023-05-15T10:45:39.952Z,42.78
2023-05-15T10:48:08.576Z,42.47
2023-05-15T10:50:38.091Z,41.42
2023-05-15T10:53:05.519Z,43.34
2023-05-15T10:55:32.918Z,37.94
2023-05-15T10:58:00.028Z,37.16
2023-05-15T11:00:29.353Z,38.06
2023-05-15T11:02:57.338Z,40.62
2023-05-15T11:05:25.894Z,38.20
2023-05-15T11:08:21.685Z,39.24
2023-05-15T11:10:48.909Z,39.37
2023-05-15T11:13:15.907Z,37.89
2023-05-15T11:15:44.678Z,37.73
2023-05-15T11:18:12.361Z,39.09
2023-05-15T11:20:53.460Z,40.56
2023-05-15T11:23:25.729Z,44.29
2023-05-15T11:25:59.165Z,42.12
2023-05-15T11:28:30.002Z,40.57
2023-05-15T11:31:06.753Z,41.63
2023-05-15T11:33:33.978Z,44.01
2023-05-15T11:36:01.907Z,43.40
2023-05-15T11:38:28.838Z,40.26
2023-05-15T11:40:58.759Z,41.99
2023-05-15T11:43:27.822Z,43.03
2023-05-15T11:46:06.507Z,44.09
2023-05-15T11:48:40.335Z,44.34
2023-05-15T11:51:24.231Z,43.57
2023-05-15T11:53:52.915Z,42.50
2023-05-15T11:56:21.247Z,43.79
2023-05-15T11:58:52.964Z,42.35
2023-05-15T12:01:19.993Z,40.53
2023-05-15T12:03:49.431Z,41.43
2023-05-15T12:06:16.990Z,40.00
2023-05-15T12:08:45.209Z,44.17
2023-05-15T12:11:12.520Z,41.98
2023-05-15T12:13:39.542Z,43.60
2023-05-15T12:16:06.801Z,43.79
2023-05-15T12:18:34.426Z,42.65
2023-05-15T12:21:01.670Z,43.90
2023-05-15T12:23:28.886Z,42.32
2023-05-15T12:26:00.672Z,43.86
2023-05-15T12:28:29.062Z,42.28
2023-05-15T12:30:56.415Z,41.51
2023-05-15T12:33:24.300Z,39.96
2023-05-15T12:35:56.211Z,40.91
2023-05-15T12:38:25.128Z,40.33
2023-05-15T12:40:57.089Z,38.53
2023-05-15T12:43:25.836Z,37.94
2023-05-15T12:45:56.994Z,39.23
2023-05-15T12:48:29.773Z,38.57
2023-05-15T12:50:57.058Z,37.23
2023-05-15T12:53:24.197Z,37.92
2023-05-15T12:55:51.301Z,38.42
2023-05-15T12:58:19.323Z,39.82
2023-05-15T13:00:47.017Z,43.28
2023-05-15T13:03:14.635Z,40.75
2023-05-15T13:05:45.843Z,41.55
2023-05-15T13:08:17.755Z,40.22
2023-05-15T13:10:46.426Z,40.22
2023-05-15T13:13:14.082Z,38.24
2023-05-15T13:15:44.679Z,37.27
2023-05-15T13:18:18.126Z,38.42
2023-05-15T13:20:47.011Z,40.08
2023-05-15T13:23:19.012Z,40.32
2023-05-15T13:25:46.337Z,38.84
2023-05-15T13:28:14.346Z,38.43
2023-05-15T13:30:42.417Z,39.93
2023-05-15T13:33:10.911Z,39.56
2023-05-15T13:35:39.523Z,38.60
2023-05-15T13:38:08.689Z,38.33
2023-05-15T13:40:37.627Z,38.67
2023-05-15T13:43:07.076Z,40.24
2023-05-15T13:45:34.348Z,40.91
2023-05-15T13:48:01.757Z,39.16
2023-05-15T13:50:31.673Z,40.37
2023-05-15T13:52:58.794Z,39.67
2023-05-15T13:55:26.338Z,40.32
2023-05-15T13:57:53.452Z,40.63
2023-05-15T14:00:20.995Z,40.60
2023-05-15T14:02:48.243Z,40.46
2023-05-15T14:05:16.543Z,40.22
2023-05-15T14:07:43.750Z,40.08
2023-05-15T14:10:11.119Z,40.89
2023-05-15T14:12:38.899Z,40.55
2023-05-15T14:15:06.618Z,41.64
2023-05-15T14:17:33.789Z,40.90
2023-05-15T14:20:00.957Z,42.75
2023-05-15T14:22:28.024Z,41.31
2023-05-15T14:24:55.096Z,40.77
2023-05-15T14:27:22.317Z,42.23
2023-05-15T14:29:51.066Z,42.32
2023-05-15T14:32:18.101Z,42.94
2023-05-15T14:34:45.181Z,43.22
2023-05-15T14:37:12.173Z,42.04
2023-05-15T14:39:39.313Z,43.64
2023-05-15T14:42:07.173Z,41.70
2023-05-15T14:44:34.965Z,43.99
2023-05-15T14:47:08.530Z,44.20
2023-05-15T14:49:36.528Z,42.88
2023-05-15T14:52:08.062Z,42.08
2023-05-15T14:54:35.913Z,42.87
2023-05-15T14:57:06.292Z,42.55
2023-05-15T14:59:33.238Z,41.82
2023-05-15T15:02:00.321Z,41.81
2023-05-15T15:04:29.193Z,41.41
2023-05-15T15:06:57.226Z,42.21
2023-05-15T15:09:25.477Z,42.06
2023-05-15T15:11:53.287Z,43.39
2023-05-15T15:14:20.466Z,44.38
2023-05-15T15:16:47.582Z,43.38
2023-05-15T15:19:16.695Z,43.15
2023-05-15T15:21:45.215Z,42.16
2023-05-15T15:24:12.186Z,43.28
2023-05-15T15:26:40.027Z,44.26
2023-05-15T15:29:07.109Z,43.85
2023-05-15T15:31:34.163Z,46.35
2023-05-15T15:34:03.053Z,46.58
2023-05-15T15:36:32.362Z,46.17
2023-05-15T15:38:59.349Z,46.68
2023-05-15T15:41:26.350Z,47.27
2023-05-15T15:43:54.020Z,47.64
2023-05-15T15:46:21.148Z,47.13
2023-05-15T15:48:48.625Z,45.03
2023-05-15T15:51:16.418Z,45.59
2023-05-15T15:53:43.362Z,45.69
2023-05-15T15:56:10.465Z,46.27
2023-05-15T15:58:37.514Z,45.44
2023-05-15T16:01:04.704Z,45.98
2023-05-15T16:03:31.954Z,45.17
2023-05-15T16:06:00.358Z,44.71
2023-05-15T16:08:27.979Z,45.34
2023-05-15T16:10:55.316Z,45.32
2023-05-15T16:13:22.418Z,45.64
2023-05-15T16:15:49.391Z,46.67
2023-05-15T16:18:16.859Z,46.30
2023-05-15T16:20:43.968Z,45.59
2023-05-15T16:23:15.634Z,46.14
2023-05-15T16:25:44.754Z,45.59
2023-05-15T16:28:12.265Z,45.16
2023-05-15T16:30:48.720Z,45.22
2023-05-15T16:33:18.400Z,44.93
2023-05-15T16:35:46.225Z,45.41
2023-05-15T16:38:14.013Z,46.24
2023-05-15T16:40:41.557Z,44.80
2023-05-15T16:43:08.784Z,46.88
2023-05-15T16:45:35.947Z,48.33
2023-05-15T16:48:03.168Z,49.49
2023-05-15T16:50:32.493Z,49.29
2023-05-15T16:52:59.632Z,49.84
2023-05-15T16:55:26.930Z,49.32
2023-05-15T16:57:54.201Z,49.19
2023-05-15T17:00:21.575Z,49.65
2023-05-15T17:02:49.406Z,49.62
2023-05-15T17:05:16.819Z,49.64
2023-05-15T17:07:44.850Z,49.08
2023-05-15T17:10:12.844Z,48.68
2023-05-15T17:12:40.320Z,49.04
2023-05-15T17:15:08.220Z,48.83
2023-05-15T17:17:35.392Z,48.94
2023-05-15T17:20:04.022Z,49.17
2023-05-15T17:22:31.023Z,49.79
2023-05-15T17:24:58.073Z,49.58
2023-05-15T17:27:25.172Z,48.13
2023-05-15T17:29:52.576Z,47.37
2023-05-15T17:32:20.502Z,48.54
2023-05-15T17:34:48.017Z,48.47
2023-05-15T17:37:15.411Z,49.97
2023-05-15T17:39:42.955Z,49.68
2023-05-15T17:42:10.037Z,49.41
2023-05-15T17:44:37.163Z,48.68
2023-05-15T17:47:04.515Z,48.61
2023-05-15T17:49:31.520Z,48.34
2023-05-15T17:51:58.674Z,49.07
2023-05-15T17:54:25.743Z,50.36
2023-05-15T17:56:52.760Z,50.70
2023-05-15T17:59:19.776Z,51.17
2023-05-15T18:01:47.012Z,51.60
2023-05-15T18:04:14.161Z,52.26
2023-05-15T18:06:41.573Z,51.99
2023-05-15T18:09:08.858Z,52.12
2023-05-15T18:11:35.818Z,52.26
2023-05-15T18:14:02.914Z,52.14
2023-05-15T18:16:31.389Z,52.21
2023-05-15T18:18:59.085Z,52.21
2023-05-15T18:21:26.312Z,51.70
2023-05-15T18:23:53.314Z,52.27
2023-05-15T18:26:21.500Z,53.07
2023-05-15T18:28:49.482Z,53.75
2023-05-15T18:31:16.740Z,53.94
2023-05-15T18:33:45.222Z,54.86
2023-05-15T18:36:12.294Z,55.85
2023-05-15T18:38:39.453Z,56.40
2023-05-15T18:41:06.692Z,56.74
2023-05-15T18:43:33.853Z,56.49
2023-05-15T18:46:00.946Z,56.77
2023-05-15T18:48:27.969Z,56.97
2023-05-15T18:50:55.986Z,57.06
2023-05-15T18:53:23.094Z,56.63
2023-05-15T18:55:50.153Z,55.80
2023-05-15T18:58:17.282Z,56.72
2023-05-15T19:00:44.559Z,56.04
2023-05-15T19:03:11.818Z,55.20
2023-05-15T19:05:38.857Z,54.66
2023-05-15T19:08:07.088Z,54.05
2023-05-15T19:10:34.257Z,54.20
2023-05-15T19:13:01.507Z,54.61
2023-05-15T19:15:28.569Z,54.42
2023-05-15T19:17:55.890Z,54.15
2023-05-15T19:20:22.978Z,54.19
2023-05-15T19:22:50.049Z,53.64
2023-05-15T19:25:17.067Z,54.62
2023-05-15T19:27:44.148Z,54.71
2023-05-15T19:30:11.667Z,54.41
2023-05-15T19:32:39.439Z,54.50
2023-05-15T19:35:06.608Z,54.35
2023-05-15T19:37:33.638Z,54.41
2023-05-15T19:40:00.718Z,53.83
2023-05-15T19:42:28.226Z,53.46
2023-05-15T19:44:55.241Z,53.17
2023-05-15T19:47:22.299Z,53.75
2023-05-15T19:49:49.305Z,53.26
2023-05-15T19:52:16.870Z,50.92
2023-05-15T19:54:44.437Z,51.21
2023-05-15T19:57:11.408Z,51.27
2023-05-15T19:59:38.616Z,51.32
2023-05-15T20:02:09.280Z,52.11
2023-05-15T20:04:37.164Z,52.52
2023-05-15T20:07:04.557Z,53.40
2023-05-15T20:09:31.872Z,52.63
2023-05-15T20:11:59.243Z,52.03
2023-05-15T20:14:26.280Z,51.38
2023-05-15T20:16:53.268Z,51.93
2023-05-15T20:19:22.422Z,51.02
2023-05-15T20:21:50.082Z,50.27
2023-05-15T20:24:18.161Z,51.70
2023-05-15T20:26:45.775Z,51.81
2023-05-15T20:29:12.841Z,52.08
2023-05-15T20:31:40.671Z,52.43
2023-05-15T20:34:08.611Z,51.51
2023-05-15T20:36:39.064Z,50.82
2023-05-15T20:39:07.560Z,50.50
2023-05-15T20:41:35.125Z,51.39
2023-05-15T20:44:02.734Z,51.62
2023-05-15T20:46:30.728Z,51.36
2023-05-15T20:48:57.982Z,49.63
2023-05-15T20:51:25.288Z,49.06
2023-05-15T20:53:52.433Z,49.38
2023-05-15T20:56:19.544Z,50.38
2023-05-15T20:58:46.726Z,50.83
2023-05-15T21:01:14.233Z,50.91
2023-05-15T21:03:41.616Z,50.33
2023-05-15T21:06:09.244Z,48.86
2023-05-15T21:08:36.445Z,48.73
2023-05-15T21:11:03.445Z,50.20
2023-05-15T21:13:30.632Z,49.08
2023-05-15T21:15:57.813Z,49.43
2023-05-15T21:18:25.103Z,49.41
2023-05-15T21:20:53.087Z,49.13
2023-05-15T21:23:21.417Z,47.85
2023-05-15T21:25:48.650Z,48.61
2023-05-15T21:28:16.109Z,49.22
2023-05-15T21:30:43.204Z,49.30
2023-05-15T21:33:10.845Z,49.79
2023-05-15T21:35:38.354Z,48.98
2023-05-15T21:38:05.623Z,49.33
2023-05-15T21:40:32.775Z,49.86
2023-05-15T21:42:59.749Z,50.33
2023-05-15T21:45:26.940Z,50.24
2023-05-15T21:47:54.047Z,51.26
2023-05-15T21:50:21.099Z,51.05
2023-05-15T21:52:51.238Z,50.73
2023-05-15T21:55:19.180Z,51.47
2023-05-15T21:57:46.271Z,52.62
2023-05-15T22:00:14.207Z,52.77
2023-05-15T22:02:41.383Z,54.23
2023-05-15T22:05:09.136Z,52.52
2023-05-15T22:07:36.214Z,52.18
2023-05-15T22:10:03.493Z,52.82
2023-05-15T22:12:32.336Z,53.36
2023-05-15T22:14:59.985Z,53.62
2023-05-15T22:17:29.308Z,53.62
2023-05-15T22:20:07.057Z,52.35
2023-05-15T22:22:35.735Z,50.74
2023-05-15T22:25:03.097Z,51.37
2023-05-15T22:27:30.294Z,51.73
2023-05-15T22:29:57.394Z,50.32
2023-05-15T22:32:24.720Z,50.13
2023-05-15T22:34:52.016Z,51.16
2023-05-15T22:37:19.457Z,51.08
2023-05-15T22:39:46.512Z,52.04
2023-05-15T22:42:13.597Z,51.17
2023-05-15T22:44:40.644Z,51.29
2023-05-15T22:47:08.011Z,51.06
2023-05-15T22:49:35.357Z,51.75
2023-05-15T22:52:02.551Z,49.71
2023-05-15T22:54:29.684Z,49.92
2023-05-15T22:56:57.038Z,49.63
2023-05-15T22:59:24.261Z,48.97
2023-05-15T23:01:51.783Z,49.98
2023-05-15T23:04:19.111Z,50.13
2023-05-15T23:06:46.294Z,50.46
2023-05-15T23:09:13.362Z,51.18
2023-05-15T23:11:40.322Z,50.49
2023-05-15T23:14:08.490Z,50.46
2023-05-15T23:16:36.182Z,49.41
2023-05-15T23:19:03.279Z,50.09
2023-05-15T23:21:30.427Z,50.43
2023-05-15T23:23:57.342Z,51.31
2023-05-15T23:26:24.377Z,49.71
2023-05-15T23:28:51.537Z,50.27
2023-05-15T23:31:18.738Z,52.03
2023-05-15T23:33:45.910Z,51.48
2023-05-15T23:36:12.911Z,52.82
2023-05-15T23:38:40.122Z,52.40
2023-05-15T23:41:07.081Z,51.67
2023-05-15T23:43:34.167Z,50.27
2023-05-15T23:46:01.120Z,51.87
2023-05-15T23:48:28.238Z,51.32
2023-05-15T23:50:55.218Z,50.36
2023-05-15T23:53:22.268Z,49.99
2023-05-15T23:55:49.503Z,50.88
2023-05-15T23:58:16.831Z,50.28
